This is the latest recevied weather packets stored in our database for station/object KC5TIL-3. If no packets are shown the sender has not sent any weather packets the latest 10 day(s).
| Time | Temp. | Humidity | Pressure | Rain* | Wind** | Luminosity | Snow |
|---|---|---|---|---|---|---|---|
| 1777915435 | 23.89° C | 26% | 1008.8 hPa | 0 mm | 3.13 m/s, 179° | - | - |
| 1777915138 | 23.89° C | 26% | 1008.8 hPa | 0 mm | 4.02 m/s, 199° | - | - |
| 1777914839 | 23.89° C | 27% | 1008.8 hPa | 0 mm | 4.02 m/s, 224° | - | - |
| 1777913635 | 23.33° C | 28% | 1009.8 hPa | 0 mm | 4.47 m/s, 171° | - | - |
| 1777913338 | 23.33° C | 29% | 1009.8 hPa | 0 mm | 2.24 m/s, 146° | - | - |
| 1777913039 | 22.78° C | 30% | 1009.8 hPa | 0 mm | 5.36 m/s, 216° | - | - |
| 1777912738 | 22.78° C | 30% | 1009.8 hPa | 0 mm | 5.36 m/s, 224° | - | - |
| 1777912141 | 22.22° C | 31% | 1009.8 hPa | 0 mm | 5.81 m/s, 211° | - | - |
| 1777911840 | 22.22° C | 31% | 1009.8 hPa | 0 mm | 4.92 m/s, 217° | - | - |
| 1777911543 | 22.78° C | 31% | 1009.8 hPa | 0 mm | 3.13 m/s, 158° | - | - |
| 1777911244 | 22.22° C | 32% | 1009.8 hPa | 0 mm | 4.02 m/s, 182° | - | - |
| 1777910943 | 21.67° C | 32% | 1009.8 hPa | 0 mm | 7.15 m/s, 230° | - | - |
| 1777910645 | 21.67° C | 32% | 1009.8 hPa | 0 mm | 6.26 m/s, 205° | - | - |
| 1777910346 | 21.67° C | 32% | 1009.8 hPa | 0 mm | 5.81 m/s, 233° | - | - |
| 1777910045 | 21.67° C | 32% | 1009.8 hPa | 0 mm | 4.92 m/s, 209° | - | - |
| 1777909748 | 21.67° C | 32% | 1010.8 hPa | 0 mm | 4.47 m/s, 189° | - | - |
| 1777909449 | 21.67° C | 32% | 1010.8 hPa | 0 mm | 3.58 m/s, 200° | - | - |
| 1777909143 | 21.11° C | 33% | 1010.8 hPa | 0 mm | 6.26 m/s, 215° | - | - |
| 1777908844 | 21.11° C | 33% | 1010.8 hPa | 0 mm | 4.47 m/s, 194° | - | - |
| 1777908542 | 21.11° C | 33% | 1010.8 hPa | 0 mm | 4.02 m/s, 144° | - | - |
| 1777908241 | 21.11° C | 33% | 1010.8 hPa | 0 mm | 5.81 m/s, 210° | - | - |
| 1777907644 | 20.56° C | 34% | 1010.8 hPa | 0 mm | 4.47 m/s, 188° | - | - |
| 1777907045 | 20.56° C | 34% | 1010.8 hPa | 0 mm | 4.02 m/s, 200° | - | - |
| 1777906746 | 20.56° C | 35% | 1010.8 hPa | 0 mm | 4.02 m/s, 175° | - | - |
| 1777906147 | 20° C | 36% | 1010.8 hPa | 0 mm | 5.81 m/s, 161° | - | - |
* Rain latest hour (hover to see other rain measurements)
** Current wind speed in m/s (hover to see current wind gust speed)